Time;durP1;ratioP1;P1;durP2;ratioP2;P2;SDS_P1;SDS_P2;PMS_P1;PMS_P2;Temp;Humidity;BMP_temperature;BMP_pressure;BME280_temperature;BME280_humidity;BME280_pressure;Samples;Min_cycle;Max_cycle;Signal;HPM_P1;HPM_P2
2022/05/10 00:02:21;;;;;;;5.42;3.70;;;;;;;7.34;54.09;101830.38;1668576;85;25731;-77
2022/05/10 00:04:50;;;;;;;7.72;3.62;;;;;;;7.28;54.32;101834.92;1668859;85;26582;-77
2022/05/10 00:07:20;;;;;;;6.87;3.67;;;;;;;7.23;54.52;101830.48;1672330;84;27485;-77
2022/05/10 00:09:47;;;;;;;6.33;3.20;;;;;;;7.20;54.57;101829.92;1668736;85;25808;-76
2022/05/10 00:12:13;;;;;;;7.80;3.65;;;;;;;7.16;54.79;101829.84;1668667;85;26562;-77
2022/05/10 00:14:40;;;;;;;6.87;3.37;;;;;;;7.14;54.92;101826.47;1668424;85;26295;-77
2022/05/10 00:17:06;;;;;;;8.68;4.00;;;;;;;7.11;55.04;101828.91;1628588;87;25889;-77
2022/05/10 00:19:32;;;;;;;8.10;3.70;;;;;;;7.08;55.17;101823.84;1641159;87;27475;-77
2022/05/10 00:21:59;;;;;;;7.42;3.85;;;;;;;7.04;55.20;101819.76;1661872;85;25935;-78
2022/05/10 00:24:25;;;;;;;5.55;3.67;;;;;;;6.98;55.31;101816.30;1665446;85;25761;-77
2022/05/10 00:26:52;;;;;;;6.87;3.60;;;;;;;6.94;55.37;101817.55;1668143;85;26623;-77
2022/05/10 00:29:19;;;;;;;10.60;4.28;;;;;;;6.91;55.43;101813.33;1668685;85;25996;-77
2022/05/10 00:31:46;;;;;;;9.10;3.52;;;;;;;6.87;55.58;101813.73;1659099;85;28300;-78
2022/05/10 00:34:16;;;;;;;8.98;5.08;;;;;;;6.82;55.83;101815.45;1667944;85;25319;-77
2022/05/10 00:36:42;;;;;;;6.50;3.98;;;;;;;6.77;56.13;101808.85;1668803;85;26188;-76
2022/05/10 00:39:09;;;;;;;9.50;3.83;;;;;;;6.72;56.23;101808.39;1668667;85;26475;-77
2022/05/10 00:41:58;;;;;;;8.18;4.20;;;;;;;6.64;56.38;101806.41;1667677;85;25928;-77
2022/05/10 00:44:36;;;;;;;6.05;3.70;;;;;;;6.60;56.33;101809.46;1668220;85;27484;-77
2022/05/10 00:47:16;;;;;;;8.15;3.52;;;;;;;6.55;56.81;101807.19;1668403;85;26609;-77
2022/05/10 00:50:04;;;;;;;8.85;3.52;;;;;;;6.50;57.22;101812.56;1668967;85;26098;-76
2022/05/10 00:53:06;;;;;;;11.48;4.33;;;;;;;6.43;57.33;101808.73;1668313;85;25969;-77
2022/05/10 00:55:40;;;;;;;10.10;3.95;;;;;;;6.35;57.44;101809.87;1642673;85;25367;-77
2022/05/10 00:58:18;;;;;;;6.60;3.95;;;;;;;6.24;57.47;101798.30;1668320;85;28310;-76
2022/05/10 01:00:45;;;;;;;8.20;4.12;;;;;;;6.23;57.72;101803.77;1668356;85;25954;-77
2022/05/10 01:03:24;;;;;;;6.37;4.15;;;;;;;6.21;57.92;101801.23;1668453;85;26475;-78
2022/05/10 01:06:08;;;;;;;10.25;3.80;;;;;;;6.20;58.02;101800.05;1658202;85;25810;-76
2022/05/10 01:09:01;;;;;;;7.97;4.53;;;;;;;6.18;58.11;101799.30;1674119;84;25973;-77
2022/05/10 01:11:42;;;;;;;7.17;4.47;;;;;;;6.18;58.05;101793.98;1652803;85;27732;-75
2022/05/10 01:14:22;;;;;;;9.90;4.67;;;;;;;6.18;58.09;101788.66;1663192;85;26457;-76
2022/05/10 01:16:49;;;;;;;8.93;4.83;;;;;;;6.14;58.11;101782.77;1669201;85;25990;-76
2022/05/10 01:19:15;;;;;;;7.67;4.40;;;;;;;6.10;57.91;101783.16;1668331;85;25939;-77
2022/05/10 01:22:01;;;;;;;7.40;4.33;;;;;;;6.08;58.10;101775.31;1668754;85;26004;-77
2022/05/10 01:24:51;;;;;;;9.90;4.53;;;;;;;6.10;58.11;101781.34;1668786;85;27545;-76
2022/05/10 01:27:55;;;;;;;10.95;4.72;;;;;;;6.08;58.13;101773.13;1668893;85;25965;-76
2022/05/10 01:30:27;;;;;;;8.30;4.90;;;;;;;6.05;58.09;101773.41;1665707;85;25766;-77
2022/05/10 01:36:15;;;;;;;13.93;5.15;;;;;;;5.99;58.28;101775.22;1667792;85;25918;-77
2022/05/10 01:38:51;;;;;;;10.32;4.87;;;;;;;5.95;58.34;101775.13;1667824;85;27690;-77
2022/05/10 01:42:15;;;;;;;10.50;5.65;;;;;;;5.89;58.37;101772.98;1668363;85;25767;-77
2022/05/10 01:45:08;;;;;;;9.90;5.55;;;;;;;5.85;58.53;101775.55;1666984;85;25874;-77
2022/05/10 01:47:45;;;;;;;12.30;5.12;;;;;;;5.80;58.72;101770.58;1667686;85;26589;-76
2022/05/10 01:50:40;;;;;;;11.63;5.58;;;;;;;5.77;58.90;101764.20;1668794;85;26535;-77
2022/05/10 01:53:21;;;;;;;10.20;4.85;;;;;;;5.74;59.02;101767.11;1634605;86;27534;-77
2022/05/10 01:55:53;;;;;;;10.50;5.80;;;;;;;5.69;59.04;101759.98;1656426;85;25978;-77
2022/05/10 01:58:24;;;;;;;14.10;6.30;;;;;;;5.69;59.31;101757.84;1652927;85;25780;-77
2022/05/10 02:00:55;;;;;;;11.03;5.33;;;;;;;5.67;59.39;101757.94;1668826;85;25777;-76
2022/05/10 02:03:48;;;;;;;;;;;;;;;5.68;59.63;101753.48;1670870;85;25764;-77
2022/05/10 02:06:37;;;;;;;12.00;5.58;;;;;;;5.65;59.82;101759.03;1667379;85;26910;-77
2022/05/10 02:09:33;;;;;;;10.18;5.28;;;;;;;5.60;59.86;101752.80;1668452;84;25825;-76
2022/05/10 02:12:16;;;;;;;11.60;5.10;;;;;;;5.55;59.85;101751.47;1657771;85;25808;-76
2022/05/10 02:14:56;;;;;;;10.95;5.55;;;;;;;5.49;59.77;101746.19;1668327;85;26740;-77
2022/05/10 02:17:31;;;;;;;14.00;6.70;;;;;;;5.46;59.89;101741.97;1668683;85;25512;-76
2022/05/10 02:20:09;;;;;;;15.32;7.00;;;;;;;5.43;59.94;101742.20;1668544;85;26888;-77
2022/05/10 02:22:46;;;;;;;13.90;5.22;;;;;;;5.40;59.92;101743.80;1669049;85;25747;-77
2022/05/10 02:25:24;;;;;;;12.40;5.65;;;;;;;5.39;60.13;101733.28;1668266;85;26431;-76
2022/05/10 02:28:01;;;;;;;12.40;6.05;;;;;;;5.37;60.18;101736.06;1659979;85;25817;-76
2022/05/10 02:30:32;;;;;;;13.08;5.50;;;;;;;5.37;60.36;101731.23;1668754;85;25873;-77
2022/05/10 02:33:09;;;;;;;9.43;5.62;;;;;;;5.36;60.67;101733.07;1667820;85;27524;-77
2022/05/10 02:35:41;;;;;;;10.35;5.80;;;;;;;5.34;60.77;101732.83;1661332;85;25777;-76
2022/05/10 02:38:10;;;;;;;11.75;5.62;;;;;;;5.32;61.01;101730.78;1639992;87;25918;-76
2022/05/10 02:40:41;;;;;;;15.15;6.30;;;;;;;5.28;61.01;101735.99;1669073;85;25780;-76
2022/05/10 02:43:06;;;;;;;9.55;5.00;;;;;;;5.22;61.09;101737.31;1668962;85;25773;-76
2022/05/10 02:45:34;;;;;;;14.13;6.00;;;;;;;5.17;61.18;101740.00;1666361;85;28277;-77
2022/05/10 02:48:02;;;;;;;11.68;5.78;;;;;;;5.12;61.27;101736.86;1661601;85;25795;-77
2022/05/10 02:50:33;;;;;;;9.83;5.70;;;;;;;5.07;61.43;101735.91;1668476;85;25838;-76
2022/05/10 02:53:00;;;;;;;11.93;6.25;;;;;;;5.04;61.49;101730.86;1669231;85;32989;-77
2022/05/10 02:55:49;;;;;;;11.57;5.58;;;;;;;5.03;61.70;101733.61;1668404;85;25845;-77
2022/05/10 02:58:38;;;;;;;8.95;5.80;;;;;;;5.00;61.75;101728.56;1668498;85;27472;-77
2022/05/10 03:01:28;;;;;;;8.43;5.58;;;;;;;4.98;61.83;101729.17;1667642;85;25759;-76
2022/05/10 03:03:55;;;;;;;10.40;5.83;;;;;;;4.95;61.90;101726.28;1667962;85;25842;-77
2022/05/10 03:06:26;;;;;;;11.08;6.25;;;;;;;4.95;62.14;101726.75;1656802;85;25805;-76
2022/05/10 03:08:56;;;;;;;12.98;6.90;;;;;;;4.95;62.34;101720.97;1675990;84;25743;-76
2022/05/10 03:11:22;;;;;;;13.05;6.47;;;;;;;4.97;62.52;101723.49;1644755;85;28114;-77
2022/05/10 03:13:49;;;;;;;10.15;6.40;;;;;;;4.99;62.46;101722.88;1667070;85;26689;-77
2022/05/10 03:16:17;;;;;;;15.18;6.10;;;;;;;5.01;62.55;101720.95;1668482;85;25696;-76
2022/05/10 03:18:44;;;;;;;13.45;6.75;;;;;;;5.04;62.59;101720.23;1668552;85;25943;-77
2022/05/10 03:21:12;;;;;;;10.93;6.97;;;;;;;5.07;62.57;101723.13;1668734;85;26408;-76
2022/05/10 03:23:39;;;;;;;13.83;7.00;;;;;;;5.05;62.58;101712.61;1668663;85;28353;-77
2022/05/10 03:26:06;;;;;;;11.22;6.45;;;;;;;5.05;62.52;101718.40;1668869;85;25868;-76
2022/05/10 03:28:34;;;;;;;13.10;7.12;;;;;;;5.08;62.83;101713.70;1667869;85;25771;-77
2022/05/10 03:31:00;;;;;;;16.48;7.40;;;;;;;5.08;62.70;101710.20;1669149;85;26661;-76
2022/05/10 03:33:26;;;;;;;14.63;6.70;;;;;;;5.07;62.77;101714.66;1668347;85;25831;-76
2022/05/10 03:35:53;;;;;;;14.28;7.20;;;;;;;5.07;62.80;101716.49;1668989;85;28368;-76
2022/05/10 03:38:19;;;;;;;12.68;6.58;;;;;;;5.05;62.87;101713.09;1668667;85;25797;-77
2022/05/10 03:40:45;;;;;;;17.45;7.40;;;;;;;5.05;62.86;101709.11;1655195;85;25830;-77
2022/05/10 03:43:12;;;;;;;13.50;6.75;;;;;;;5.07;63.02;101709.86;1668306;84;25843;-78
2022/05/10 03:45:38;;;;;;;15.23;7.15;;;;;;;5.09;63.01;101714.55;1666486;85;25873;-77
2022/05/10 03:48:06;;;;;;;16.85;6.80;;;;;;;5.12;63.14;101708.98;1667577;85;27476;-76
2022/05/10 03:50:33;;;;;;;13.60;7.35;;;;;;;5.15;63.11;101712.72;1663926;85;25866;-77
2022/05/10 03:53:00;;;;;;;13.72;7.15;;;;;;;5.18;63.01;101705.34;1664641;85;25751;-77
2022/05/10 03:55:28;;;;;;;12.03;7.30;;;;;;;5.25;63.19;101704.36;1665709;85;26542;-76
2022/05/10 03:57:56;;;;;;;15.00;7.33;;;;;;;5.31;63.24;101699.38;1658869;85;25792;-77
2022/05/10 04:00:26;;;;;;;12.95;6.95;;;;;;;5.40;63.21;101697.78;1633516;86;27455;-76
2022/05/10 04:02:55;;;;;;;14.78;7.08;;;;;;;5.50;63.31;101701.36;1629165;86;26182;-77
2022/05/10 04:05:24;;;;;;;13.48;7.45;;;;;;;5.52;63.17;101706.05;1629761;86;25813;-76
2022/05/10 04:07:51;;;;;;;15.70;7.50;;;;;;;5.53;63.22;101699.78;1635626;85;27069;-76
2022/05/10 04:10:20;;;;;;;13.83;7.10;;;;;;;5.52;63.12;101694.09;1630125;86;25517;-77
2022/05/10 04:12:46;;;;;;;19.62;7.72;;;;;;;5.58;63.19;101695.42;1634637;85;28330;-76
2022/05/10 04:15:17;;;;;;;13.08;7.53;;;;;;;5.62;63.12;101692.38;1633401;86;26049;-77
2022/05/10 04:17:43;;;;;;;13.18;7.03;;;;;;;5.69;63.31;101696.70;1630917;86;25926;-77
2022/05/10 04:20:12;;;;;;;15.43;7.42;;;;;;;5.79;63.11;101696.27;1630466;86;25835;-76
2022/05/10 04:22:39;;;;;;;18.85;8.48;;;;;;;5.87;62.91;101691.17;1634561;85;25843;-76
2022/05/10 04:25:06;;;;;;;17.23;8.15;;;;;;;5.95;62.79;101694.02;1630566;86;27496;-76
2022/05/10 04:27:33;;;;;;;18.60;7.75;;;;;;;6.04;62.55;101688.78;1630020;86;26046;-77
2022/05/10 04:29:59;;;;;;;13.15;6.90;;;;;;;6.13;62.60;101693.31;1646888;85;25730;-76
2022/05/10 04:32:25;;;;;;;15.95;7.30;;;;;;;6.22;62.63;101692.50;1644029;85;26606;-76
2022/05/10 04:34:51;;;;;;;17.32;7.65;;;;;;;6.30;62.56;101694.52;1647264;84;26428;-76
2022/05/10 04:37:18;;;;;;;14.75;8.28;;;;;;;6.40;62.71;101695.88;1660405;84;27646;-77
2022/05/10 04:42:28;;;;;;;12.98;7.33;;;;;;;6.57;62.42;101692.59;1668182;84;25950;-77
2022/05/10 04:44:55;;;;;;;13.50;6.55;;;;;;;6.69;62.54;101694.19;1669085;85;25946;-76
2022/05/10 04:47:21;;;;;;;14.15;7.33;;;;;;;6.77;62.82;101698.34;1668698;85;25761;-77
2022/05/10 04:49:47;;;;;;;13.78;7.37;;;;;;;6.86;62.70;101701.02;1668645;85;27713;-77
2022/05/10 04:52:13;;;;;;;13.62;7.30;;;;;;;6.97;62.42;101703.58;1668733;85;26055;-77
2022/05/10 04:54:40;;;;;;;14.05;6.75;;;;;;;7.07;62.43;101700.09;1668653;85;25306;-77
2022/05/10 04:57:06;;;;;;;14.68;6.72;;;;;;;7.16;62.44;101696.61;1668912;85;26596;-77
2022/05/10 04:59:33;;;;;;;14.55;7.03;;;;;;;7.27;62.44;101696.49;1666822;84;43341;-77
2022/05/10 05:02:00;;;;;;;16.42;7.12;;;;;;;7.39;62.27;101692.22;1684613;84;28456;-77
2022/05/10 05:04:26;;;;;;;12.37;7.05;;;;;;;7.50;62.10;101700.09;1668553;85;26437;-77
2022/05/10 05:06:52;;;;;;;11.73;7.25;;;;;;;7.63;62.09;101701.13;1640869;87;25848;-78
2022/05/10 05:09:19;;;;;;;16.60;6.95;;;;;;;7.78;61.83;101697.06;1663842;85;25808;-78
2022/05/10 05:11:45;;;;;;;13.18;7.28;;;;;;;7.92;61.65;101700.61;1656090;85;25793;-78
2022/05/10 05:14:11;;;;;;;14.13;7.22;;;;;;;8.07;61.14;101697.84;1668622;85;27493;-77
2022/05/10 05:16:38;;;;;;;15.40;6.03;;;;;;;8.23;61.18;101691.39;1656835;85;25850;-78
2022/05/10 05:19:05;;;;;;;13.50;6.20;;;;;;;8.39;60.44;101694.34;1655264;85;26478;-78
2022/05/10 05:21:31;;;;;;;11.60;5.87;;;;;;;8.54;60.27;101698.22;1656987;85;25900;-77
2022/05/10 05:23:57;;;;;;;13.32;6.20;;;;;;;8.71;59.81;101698.41;1668943;85;26603;-77
2022/05/10 05:26:24;;;;;;;11.15;6.15;;;;;;;8.86;59.38;101699.11;1656640;85;27475;-76
2022/05/10 05:28:51;;;;;;;16.97;7.60;;;;;;;9.02;59.04;101701.99;1641656;85;25837;-77
2022/05/10 05:31:18;;;;;;;11.65;6.42;;;;;;;9.18;58.57;101696.81;1652286;85;25847;-77
2022/05/10 05:33:46;;;;;;;13.53;7.05;;;;;;;9.31;58.54;101697.28;1646184;85;25963;-77
2022/05/10 05:36:13;;;;;;;10.45;6.00;;;;;;;9.46;57.56;101694.06;1659428;85;26213;-77
2022/05/10 05:38:40;;;;;;;12.80;6.60;;;;;;;9.60;57.74;101706.40;1664056;84;27465;-76
2022/05/10 05:41:07;;;;;;;11.80;5.95;;;;;;;9.72;56.95;101702.52;1660987;85;25818;-77
2022/05/10 05:43:34;;;;;;;16.90;7.62;;;;;;;9.87;56.44;101704.98;1645868;85;25877;-77
2022/05/10 05:46:02;;;;;;;9.83;5.30;;;;;;;10.01;55.86;101708.91;1661653;85;25786;-76
2022/05/10 05:48:29;;;;;;;10.45;5.67;;;;;;;10.15;56.32;101703.04;1668768;85;25766;-77
2022/05/10 05:50:55;;;;;;;11.53;5.95;;;;;;;10.31;56.29;101701.79;1667886;85;28302;-77
2022/05/10 05:53:22;;;;;;;8.35;5.72;;;;;;;10.44;56.13;101698.68;1668150;85;26082;-76
2022/05/10 05:55:48;;;;;;;12.35;6.83;;;;;;;10.57;55.39;101701.27;1668956;85;26583;-76
2022/05/10 05:58:15;;;;;;;10.60;6.03;;;;;;;10.70;54.92;101694.13;1668684;85;26201;-78
2022/05/10 06:00:42;;;;;;;13.08;6.10;;;;;;;10.81;55.50;101696.03;1669003;85;25775;-77
2022/05/10 06:03:09;;;;;;;11.22;5.55;;;;;;;10.97;55.38;101689.05;1668176;85;27468;-77
2022/05/10 06:05:35;;;;;;;9.40;6.50;;;;;;;11.12;54.64;101688.77;1668887;85;25734;-77
2022/05/10 06:08:03;;;;;;;11.85;5.90;;;;;;;11.27;54.64;101693.30;1668907;85;25799;-77
2022/05/10 06:10:30;;;;;;;10.65;5.92;;;;;;;11.39;54.01;101686.64;1668670;85;26369;-77
2022/05/10 06:13:01;;;;;;;7.67;5.47;;;;;;;11.54;53.32;101694.37;1669128;85;25751;-76
2022/05/10 06:15:27;;;;;;;9.23;5.28;;;;;;;11.69;53.71;101687.02;1668524;84;27427;-78
2022/05/10 06:17:56;;;;;;;9.48;6.28;;;;;;;11.83;52.71;101688.52;1665293;85;26988;-77
2022/05/10 06:20:25;;;;;;;7.37;4.90;;;;;;;11.96;51.98;101683.98;1662040;85;26181;-77
2022/05/10 06:22:52;;;;;;;13.35;5.72;;;;;;;12.09;52.14;101686.99;1658909;85;26668;-77
2022/05/10 06:25:23;;;;;;;10.95;4.85;;;;;;;12.23;51.85;101683.09;1659773;85;25342;-77
2022/05/10 06:27:53;;;;;;;9.83;5.25;;;;;;;12.37;51.00;101682.41;1663173;85;27537;-77
2022/05/10 06:30:21;;;;;;;10.55;4.87;;;;;;;12.49;49.46;101682.05;1657570;85;26024;-77
2022/05/10 06:32:48;;;;;;;12.65;5.15;;;;;;;12.59;50.43;101673.27;1668318;85;25792;-77
2022/05/10 06:35:17;;;;;;;10.43;4.37;;;;;;;12.70;50.00;101669.67;1664847;85;25828;-76
2022/05/10 06:40:28;;;;;;;8.55;4.83;;;;;;;12.91;49.40;101661.03;1668366;85;27486;-77
2022/05/10 06:42:59;;;;;;;10.45;4.20;;;;;;;13.04;49.45;101659.95;1669062;84;25742;-78
2022/05/10 06:45:26;;;;;;;9.75;5.15;;;;;;;13.15;49.40;101655.02;1668905;85;25896;-77
2022/05/10 06:47:53;;;;;;;13.68;4.97;;;;;;;13.28;48.51;101657.66;1667407;85;25943;-77
2022/05/10 06:50:22;;;;;;;11.75;5.67;;;;;;;13.38;48.37;101659.09;1668317;85;25763;-77
2022/05/10 06:52:57;;;;;;;9.73;4.95;;;;;;;13.44;48.18;101663.75;1648177;86;27497;-77
2022/05/10 06:55:25;;;;;;;8.15;4.90;;;;;;;13.56;48.07;101658.77;1664697;85;26440;-76
2022/05/10 06:57:53;;;;;;;9.08;4.08;;;;;;;13.67;47.29;101651.61;1668553;85;25851;-77
2022/05/10 07:00:20;;;;;;;10.32;4.37;;;;;;;13.70;46.44;101654.80;1668429;85;25937;-77
2022/05/10 07:02:46;;;;;;;9.88;4.72;;;;;;;13.78;46.91;101653.87;1675175;84;25749;-77
2022/05/10 07:05:15;;;;;;;11.60;4.17;;;;;;;13.89;46.96;101662.88;1668557;85;27459;-77
2022/05/10 07:07:43;;;;;;;6.75;4.03;;;;;;;14.01;47.43;101656.01;1667991;84;25847;-77
2022/05/10 07:10:11;;;;;;;6.97;4.42;;;;;;;14.09;47.35;101659.15;1669277;85;26378;-77
2022/05/10 07:12:39;;;;;;;9.88;3.90;;;;;;;14.19;46.71;101651.13;1668564;85;26669;-77
2022/05/10 07:15:10;;;;;;;10.38;4.53;;;;;;;14.30;46.57;101653.91;1667581;85;25971;-77
2022/05/10 07:17:41;;;;;;;6.62;3.80;;;;;;;14.40;45.94;101653.95;1667991;85;27453;-78
2022/05/10 07:20:08;;;;;;;7.25;3.95;;;;;;;14.51;45.77;101652.64;1667732;85;25972;-77
2022/05/10 07:22:34;;;;;;;9.98;3.98;;;;;;;14.60;46.35;101651.02;1668635;85;26099;-76
2022/05/10 07:25:01;;;;;;;8.83;4.42;;;;;;;14.68;44.99;101648.72;1668713;85;26799;-77
2022/05/10 07:27:27;;;;;;;9.53;4.33;;;;;;;14.76;44.64;101649.12;1668116;85;25310;-76
2022/05/10 07:29:53;;;;;;;6.97;3.45;;;;;;;14.85;44.47;101656.93;1668907;85;26905;-78
2022/05/10 07:32:20;;;;;;;11.10;3.83;;;;;;;14.88;43.85;101644.93;1667780;85;25869;-77
2022/05/10 07:34:47;;;;;;;5.83;2.95;;;;;;;14.93;43.62;101641.13;1666866;85;25935;-77
2022/05/10 07:37:13;;;;;;;7.78;3.92;;;;;;;15.00;43.97;101644.25;1665350;85;25875;-77
2022/05/10 07:39:40;;;;;;;7.33;3.00;;;;;;;15.14;44.84;101644.70;1621371;87;25940;-77
2022/05/10 07:42:07;;;;;;;4.75;3.25;;;;;;;15.23;44.70;101641.37;1658585;85;27493;-77
2022/05/10 07:44:34;;;;;;;6.75;3.75;;;;;;;15.29;43.17;101637.39;1655442;85;26592;-77
2022/05/10 07:47:00;;;;;;;5.28;3.62;;;;;;;15.32;42.70;101634.83;1661916;85;25760;-77
2022/05/10 07:49:26;;;;;;;10.30;4.25;;;;;;;15.39;42.65;101641.14;1668622;85;25822;-76
2022/05/10 07:51:53;;;;;;;9.98;4.03;;;;;;;15.41;42.32;101638.57;1667962;85;25748;-77
2022/05/10 07:54:19;;;;;;;6.85;3.50;;;;;;;15.47;43.29;101637.48;1668777;85;28293;-78
2022/05/10 07:56:45;;;;;;;6.92;3.50;;;;;;;15.57;42.68;101641.53;1668297;85;25994;-77
2022/05/10 07:59:12;;;;;;;8.48;4.30;;;;;;;15.59;41.49;101637.31;1668492;85;25775;-77
2022/05/10 08:01:38;;;;;;;8.85;3.80;;;;;;;15.64;42.75;101632.14;1656653;85;26771;-77
2022/05/10 08:04:05;;;;;;;5.37;3.17;;;;;;;15.73;42.74;101632.33;1668890;85;25824;-77
2022/05/10 08:06:31;;;;;;;5.00;3.37;;;;;;;15.86;43.04;101634.63;1668937;85;27471;-78
2022/05/10 08:08:58;;;;;;;7.78;3.33;;;;;;;15.95;42.26;101633.43;1668868;85;26348;-77
2022/05/10 08:11:24;;;;;;;4.08;2.90;;;;;;;16.05;42.44;101634.45;1668819;85;26513;-77
2022/05/10 08:13:50;;;;;;;6.70;3.40;;;;;;;16.11;41.34;101629.60;1668544;85;25771;-77
2022/05/10 08:16:17;;;;;;;4.75;2.60;;;;;;;16.15;41.12;101627.66;1669396;85;26415;-77
2022/05/10 08:18:48;;;;;;;10.85;3.30;;;;;;;16.20;41.63;101626.56;1668343;85;27540;-78
2022/05/10 08:21:16;;;;;;;8.50;2.97;;;;;;;16.23;39.74;101624.80;1668869;85;26183;-78
2022/05/10 08:23:42;;;;;;;5.40;2.50;;;;;;;16.26;40.32;101618.16;1668798;85;25787;-77
2022/05/10 08:26:09;;;;;;;5.65;2.45;;;;;;;16.31;39.01;101614.35;1669571;85;25754;-77
2022/05/10 08:28:37;;;;;;;4.30;1.40;;;;;;;16.37;39.73;101614.06;1668860;85;26189;-77
2022/05/10 08:31:07;;;;;;;2.47;1.60;;;;;;;16.44;38.32;101612.23;1669463;85;26892;-77
2022/05/10 08:33:37;;;;;;;6.42;2.42;;;;;;;16.51;38.29;101603.67;1664638;85;25945;-77
2022/05/10 08:36:06;;;;;;;4.80;2.30;;;;;;;16.62;38.61;101602.56;1661264;85;26500;-77
2022/05/10 08:38:32;;;;;;;9.05;2.05;;;;;;;16.71;38.65;101600.00;1664022;85;26606;-77
2022/05/10 08:41:15;;;;;;;6.20;2.60;;;;;;;16.78;37.27;101600.03;1669156;85;25758;-77
2022/05/10 08:43:52;;;;;;;7.05;2.05;;;;;;;16.86;37.79;101595.27;1634921;87;27655;-77
2022/05/10 08:46:32;;;;;;;7.33;2.55;;;;;;;16.90;36.86;101600.59;1632429;86;25875;-77
2022/05/10 08:49:06;;;;;;;5.08;2.40;;;;;;;16.87;36.51;101593.41;1659622;85;25427;-77
2022/05/10 08:51:33;;;;;;;7.05;2.60;;;;;;;16.80;36.61;101594.73;1668438;85;26575;-77
2022/05/10 08:53:59;;;;;;;4.33;1.90;;;;;;;16.87;37.40;101592.05;1668349;85;25782;-77
2022/05/10 08:56:40;;;;;;;5.28;2.20;;;;;;;16.98;36.50;101592.27;1668497;85;27464;-78
2022/05/10 08:59:16;;;;;;;;;;;;;;;17.05;35.17;101584.69;1667453;85;25960;-77
2022/05/10 09:02:03;;;;;;;3.65;1.98;;;;;;;17.09;35.58;101588.65;1663849;85;25792;-77
2022/05/10 09:04:55;;;;;;;6.60;2.50;;;;;;;17.11;36.85;101586.05;1643926;85;26508;-77
2022/05/10 09:07:38;;;;;;;3.65;2.00;;;;;;;17.12;36.25;101577.42;1654486;85;25932;-77
2022/05/10 09:10:21;;;;;;;3.98;2.25;;;;;;;17.15;36.15;101565.65;1660864;85;27425;-77
2022/05/10 09:13:01;;;;;;;3.47;2.35;;;;;;;17.20;37.38;101565.03;1668167;85;25887;-77
2022/05/10 09:15:39;;;;;;;3.55;1.98;;;;;;;17.37;36.41;101560.37;1669217;85;26622;-77
2022/05/10 09:18:24;;;;;;;4.03;2.22;;;;;;;17.50;36.00;101562.27;1668700;85;25793;-77
2022/05/10 09:21:10;;;;;;;3.33;2.27;;;;;;;17.51;34.61;101559.34;1669386;85;25812;-77
2022/05/10 09:24:31;;;;;;;5.03;2.05;;;;;;;17.47;34.54;101556.72;1669234;85;27548;-77
2022/05/10 09:27:05;;;;;;;4.45;2.33;;;;;;;17.52;34.47;101554.77;1669159;85;26138;-77
2022/05/10 09:29:44;;;;;;;3.17;2.20;;;;;;;17.62;34.27;101557.91;1668704;85;25823;-77
2022/05/10 09:35:21;;;;;;;3.45;1.92;;;;;;;17.77;34.12;101548.20;1669732;85;25800;-77
2022/05/10 09:37:57;;;;;;;2.98;2.30;;;;;;;17.79;33.44;101542.05;1669409;85;27656;-78
2022/05/10 09:40:34;;;;;;;4.50;2.17;;;;;;;17.77;32.77;101546.84;1669178;85;25846;-77
2022/05/10 09:43:32;;;;;;;3.80;1.72;;;;;;;17.77;33.43;101545.48;1667404;84;26504;-77
2022/05/10 09:46:22;;;;;;;5.70;2.10;;;;;;;17.80;32.64;101538.27;1668841;85;25857;-77
2022/05/10 09:48:48;;;;;;;5.05;2.25;;;;;;;17.86;34.04;101531.48;1658554;85;25919;-77
2022/05/10 09:51:36;;;;;;;5.55;2.35;;;;;;;17.95;34.42;101530.73;1680232;84;27472;-77
2022/05/10 09:54:10;;;;;;;5.30;2.00;;;;;;;18.02;34.75;101533.77;1649800;85;25915;-78
2022/05/10 09:56:40;;;;;;;4.28;2.45;;;;;;;18.18;34.91;101525.14;1667267;85;26305;-77
2022/05/10 10:01:58;;;;;;;4.28;2.08;;;;;;;18.30;33.52;101523.97;1675830;82;25916;-77
2022/05/10 10:04:37;;;;;;;5.00;1.92;;;;;;;18.28;32.43;101519.28;1640456;82;27483;-78
2022/05/10 10:07:15;;;;;;;5.35;2.33;;;;;;;18.24;32.25;101517.50;1640053;87;25861;-77
2022/05/10 10:09:48;;;;;;;4.95;2.10;;;;;;;18.27;33.71;101516.25;1628994;87;25826;-77
2022/05/10 10:12:34;;;;;;;4.62;2.22;;;;;;;18.29;34.07;101512.28;1641554;86;26568;-78
2022/05/10 10:15:22;;;;;;;5.70;1.95;;;;;;;18.38;34.22;101504.21;1635246;85;26506;-77
2022/05/10 10:17:54;;;;;;;3.85;2.83;;;;;;;18.53;33.48;101505.83;1646007;82;27548;31
2022/05/10 10:20:38;;;;;;;3.52;2.40;;;;;;;18.64;33.73;101499.20;1707994;83;25800;-77
2022/05/10 10:23:37;;;;;;;4.00;2.08;;;;;;;18.76;34.25;101499.33;1678734;84;26463;-77
2022/05/10 10:26:21;;;;;;;7.00;2.10;;;;;;;18.90;34.23;101496.84;1684570;84;25807;-76
2022/05/10 10:29:00;;;;;;;3.45;1.90;;;;;;;18.99;32.55;101488.75;1671803;84;26061;-77
2022/05/10 10:31:34;;;;;;;4.58;2.25;;;;;;;19.04;33.24;101484.83;1678311;84;28742;-77
2022/05/10 10:34:14;;;;;;;3.55;1.92;;;;;;;19.05;32.08;101481.08;1684363;84;25790;-77
2022/05/10 10:37:00;;;;;;;5.78;1.95;;;;;;;19.09;33.37;101478.22;1663473;86;32622;-77
2022/05/10 10:39:36;;;;;;;4.15;2.15;;;;;;;19.16;31.58;101465.42;1654876;84;26585;-76
2022/05/10 10:42:32;;;;;;;4.37;2.02;;;;;;;19.13;31.38;101460.42;1692042;83;26004;-77
2022/05/10 10:45:00;;;;;;;4.08;2.05;;;;;;;19.12;32.17;101461.46;1681821;84;27456;-77
2022/05/10 10:47:53;;;;;;;8.25;2.08;;;;;;;19.22;33.16;101457.19;1682520;83;25953;-77
2022/05/10 10:50:32;;;;;;;5.42;2.22;;;;;;;19.30;31.52;101449.30;1687424;84;25914;-76
2022/05/10 10:53:00;;;;;;;4.78;1.77;;;;;;;19.26;31.81;101442.66;1663216;86;25837;-76
2022/05/10 10:55:44;;;;;;;3.87;1.92;;;;;;;19.32;30.60;101449.06;1681592;84;25547;-76
2022/05/10 10:58:51;;;;;;;4.25;1.87;;;;;;;19.33;30.87;101435.80;1689570;83;28527;-77
2022/05/10 11:01:47;;;;;;;3.00;1.80;;;;;;;19.40;32.17;101431.15;1684694;84;25836;-77
2022/05/10 11:04:52;;;;;;;9.35;1.98;;;;;;;19.48;31.45;101425.45;1643409;84;25918;-77
2022/05/10 11:07:32;;;;;;;4.45;2.05;;;;;;;19.46;30.37;101414.78;1692981;84;25772;-77
2022/05/10 11:10:23;;;;;;;2.75;1.85;;;;;;;19.54;30.37;101414.51;1682237;83;26503;-77
2022/05/10 11:13:07;;;;;;;4.83;2.15;;;;;;;19.54;31.41;101400.92;1686216;84;26905;-76
2022/05/10 11:15:48;;;;;;;3.75;1.80;;;;;;;19.65;32.15;101398.78;1689042;84;25281;-77
2022/05/10 11:18:36;;;;;;;2.40;1.80;;;;;;;19.82;32.80;101401.19;1664949;84;25711;-77
2022/05/10 11:21:30;;;;;;;2.70;1.87;;;;;;;19.96;31.61;101395.91;1673373;84;26560;-77
2022/05/10 11:24:29;;;;;;;2.75;1.92;;;;;;;20.07;29.33;101392.94;1686119;84;25733;-77
2022/05/10 11:27:19;;;;;;;3.00;1.72;;;;;;;20.12;30.88;101387.66;1681188;84;27484;-77
2022/05/10 11:30:09;;;;;;;5.33;1.57;;;;;;;20.18;30.82;101383.16;1665505;84;26545;-77
2022/05/10 11:32:46;;;;;;;2.33;1.45;;;;;;;20.26;30.34;101373.34;1681569;84;26352;-77
2022/05/10 11:35:24;;;;;;;2.67;1.65;;;;;;;20.28;30.34;101367.14;1681119;84;25774;-77
2022/05/10 11:38:22;;;;;;;2.25;1.65;;;;;;;20.38;30.44;101369.59;1679164;83;25776;-77
2022/05/10 11:40:57;;;;;;;3.35;1.47;;;;;;;20.49;30.45;101360.64;1688117;84;28279;-77
2022/05/10 11:43:49;;;;;;;1.75;1.42;;;;;;;20.51;30.09;101359.03;1667596;84;25950;-77
2022/05/10 11:46:33;;;;;;;4.00;1.40;;;;;;;20.62;30.57;101344.09;1675903;84;25761;-77
2022/05/10 11:49:17;;;;;;;4.72;2.05;;;;;;;20.70;30.55;101341.55;1684069;83;25821;-77
2022/05/10 11:51:48;;;;;;;2.55;1.80;;;;;;;20.80;30.58;101334.17;1687708;84;25868;-77
2022/05/10 11:54:29;;;;;;;3.52;1.82;;;;;;;20.91;30.40;101326.55;1665115;86;27463;-77
2022/05/10 11:56:57;;;;;;;3.00;1.55;;;;;;;20.97;28.87;101322.87;1672765;84;25913;-77
2022/05/10 11:59:28;;;;;;;3.67;1.57;;;;;;;20.99;29.78;101314.76;1682541;84;26553;-77
2022/05/10 12:01:56;;;;;;;7.45;3.30;;;;;;;21.06;30.12;101320.95;1673528;84;25930;-77
2022/05/10 12:04:39;;;;;;;3.85;1.50;;;;;;;21.15;29.48;101317.34;1665078;86;26584;-76
2022/05/10 12:07:26;;;;;;;30.72;9.28;;;;;;;21.22;28.70;101314.77;1655749;86;27443;-77
2022/05/10 12:10:07;;;;;;;6.62;2.65;;;;;;;21.32;30.05;101316.89;1661689;84;25858;-78
2022/05/10 12:12:44;;;;;;;6.80;3.12;;;;;;;21.43;29.92;101309.20;1644537;86;25850;-77